Time;durP1;ratioP1;P1;durP2;ratioP2;P2;SDS_P1;SDS_P2;PMS_P1;PMS_P2;Temp;Humidity;BMP_temperature;BMP_pressure;BME280_temperature;BME280_humidity;BME280_pressure;Samples;Min_cycle;Max_cycle;Signal;HPM_P1;HPM_P2
2023/05/11 00:01:46;;;;;;;5.50;3.08;;;;;;;8.61;100.00;96070.53;5089988;28;20047;-75
2023/05/11 00:04:12;;;;;;;8.15;4.10;;;;;;;8.61;100.00;96073.25;5089119;28;20048;-75
2023/05/11 00:06:39;;;;;;;4.80;3.50;;;;;;;8.53;100.00;96065.84;5089434;28;20663;-74
2023/05/11 00:09:08;;;;;;;5.55;3.40;;;;;;;8.45;100.00;96063.88;5089207;28;20045;-75
2023/05/11 00:11:34;;;;;;;6.45;3.65;;;;;;;8.52;100.00;96066.97;5089537;28;20047;-76
2023/05/11 00:14:01;;;;;;;5.72;3.72;;;;;;;8.51;100.00;96062.66;5090063;28;20044;-73
2023/05/11 00:16:29;;;;;;;5.90;2.58;;;;;;;8.43;100.00;96059.91;5086947;27;20055;-75
2023/05/11 00:18:55;;;;;;;6.18;2.90;;;;;;;8.44;100.00;96067.72;5091419;28;20048;-75
2023/05/11 00:21:22;;;;;;;8.15;3.20;;;;;;;8.39;100.00;96059.69;5091846;28;20055;-75
2023/05/11 00:23:48;;;;;;;4.80;2.97;;;;;;;8.36;100.00;96060.34;5092661;28;20044;-76
2023/05/11 00:26:15;;;;;;;10.75;4.05;;;;;;;8.36;100.00;96061.16;5086598;27;20044;-75
2023/05/11 00:28:42;;;;;;;5.50;2.95;;;;;;;8.47;100.00;96048.09;5094381;28;20047;-76
2023/05/11 00:31:08;;;;;;;9.52;3.50;;;;;;;8.31;100.00;96052.31;5094078;28;20047;-76
2023/05/11 00:33:36;;;;;;;8.70;3.58;;;;;;;8.31;100.00;96046.88;5094073;28;20530;-75
2023/05/11 00:36:03;;;;;;;8.02;3.50;;;;;;;8.39;100.00;96046.13;5086790;27;20040;-75
2023/05/11 00:38:30;;;;;;;7.82;3.35;;;;;;;8.39;100.00;96046.13;5093644;28;20040;-75
2023/05/11 00:40:57;;;;;;;7.70;3.50;;;;;;;8.31;100.00;96038.75;5093975;28;20052;-75
2023/05/11 00:43:23;;;;;;;9.55;3.10;;;;;;;8.23;100.00;96044.91;5091048;27;20070;-75
2023/05/11 00:45:51;;;;;;;5.68;2.90;;;;;;;8.24;100.00;96035.66;5093617;28;20036;-76
2023/05/11 00:48:17;;;;;;;8.52;3.47;;;;;;;8.26;100.00;96045.09;5094112;28;20048;-76
2023/05/11 00:50:46;;;;;;;8.05;3.53;;;;;;;8.25;100.00;96042.69;5095074;28;20048;-75
2023/05/11 00:53:13;;;;;;;8.90;3.65;;;;;;;8.34;100.00;96036.19;5094419;28;20044;-75
2023/05/11 00:55:40;;;;;;;8.43;3.50;;;;;;;8.33;100.00;96036.50;5090453;28;20058;-75
2023/05/11 00:58:07;;;;;;;7.78;3.67;;;;;;;8.41;100.00;96033.09;5090009;28;20047;-75
2023/05/11 01:00:35;;;;;;;6.75;2.67;;;;;;;8.39;100.00;96037.19;5092307;28;20047;-75
2023/05/11 01:03:02;;;;;;;6.03;3.10;;;;;;;8.37;100.00;96042.94;5095083;28;20040;-76
2023/05/11 01:05:33;;;;;;;8.18;3.30;;;;;;;8.33;100.00;96037.31;5095495;28;20051;-76
2023/05/11 01:08:08;;;;;;;8.07;3.00;;;;;;;8.31;100.00;96041.44;5083956;28;20051;-76
2023/05/11 01:10:42;;;;;;;8.80;3.08;;;;;;;8.38;100.00;96039.13;5089917;28;20052;-75
2023/05/11 01:13:17;;;;;;;8.30;3.60;;;;;;;8.28;100.00;96039.34;5089775;28;20052;-75
2023/05/11 01:15:48;;;;;;;8.82;3.83;;;;;;;8.23;100.00;96034.06;5087248;28;20040;-75
2023/05/11 01:18:19;;;;;;;8.43;3.17;;;;;;;8.18;100.00;96036.91;5090100;28;20055;-75
2023/05/11 01:20:48;;;;;;;9.43;4.03;;;;;;;8.22;100.00;96037.88;5090467;28;20402;-75
2023/05/11 01:23:55;;;;;;;10.18;4.25;;;;;;;8.22;100.00;96032.47;5078809;27;20058;-76
2023/05/11 01:26:34;;;;;;;7.47;3.20;;;;;;;8.15;100.00;96032.09;5057945;28;20398;-75
2023/05/11 01:29:41;;;;;;;10.93;3.08;;;;;;;8.07;100.00;96026.31;5082169;28;20044;-76
2023/05/11 01:32:15;;;;;;;11.50;5.13;;;;;;;8.14;100.00;96027.78;5087233;27;20055;-75
2023/05/11 01:34:44;;;;;;;9.10;3.60;;;;;;;8.17;100.00;96027.16;5089313;28;20043;-75
2023/05/11 01:37:15;;;;;;;8.35;2.90;;;;;;;8.10;100.00;96025.69;5089236;28;20063;-75
2023/05/11 01:39:50;;;;;;;9.82;4.05;;;;;;;8.17;100.00;96027.16;5080537;28;20071;-74
2023/05/11 01:42:20;;;;;;;3.97;2.65;;;;;;;8.11;100.00;96026.50;5088655;28;20044;-75
2023/05/11 01:44:51;;;;;;;4.90;3.17;;;;;;;8.19;100.00;96027.63;5088876;28;20048;-75
2023/05/11 01:47:22;;;;;;;5.65;3.05;;;;;;;8.16;100.00;96022.84;5089124;28;20040;-75
2023/05/11 01:49:51;;;;;;;5.55;2.38;;;;;;;8.15;100.00;96026.69;5091500;28;20077;-75
2023/05/11 01:52:20;;;;;;;6.90;2.85;;;;;;;8.15;100.00;96027.47;5089797;27;20117;-75
2023/05/11 01:54:48;;;;;;;4.32;2.72;;;;;;;8.30;100.00;96018.13;5092877;28;20052;-76
2023/05/11 01:57:17;;;;;;;3.97;2.50;;;;;;;8.19;100.00;96016.78;5092618;28;20044;-76
2023/05/11 01:59:45;;;;;;;5.30;2.50;;;;;;;8.20;100.00;96024.63;5092887;28;20040;-75
2023/05/11 02:02:13;;;;;;;4.43;2.75;;;;;;;8.18;100.00;96026.84;5090435;28;20052;-75
2023/05/11 02:04:42;;;;;;;4.90;2.63;;;;;;;8.15;100.00;96022.06;5092193;28;20119;-73
2023/05/11 02:07:11;;;;;;;5.93;2.53;;;;;;;8.11;100.00;96019.16;5092141;28;20097;-78
2023/05/11 02:09:39;;;;;;;4.63;2.70;;;;;;;8.19;100.00;96024.94;5091171;28;20487;-73
2023/05/11 02:12:07;;;;;;;7.88;4.28;;;;;;;8.21;100.00;96018.09;5091140;28;20044;-73
2023/05/11 02:14:35;;;;;;;5.55;2.92;;;;;;;8.20;100.00;96023.84;5092881;28;20047;-74
2023/05/11 02:17:04;;;;;;;5.43;3.17;;;;;;;8.27;100.00;96018.75;5092748;28;20044;-75
2023/05/11 02:19:33;;;;;;;6.78;3.03;;;;;;;8.26;100.00;96012.53;5093090;28;20051;-74
2023/05/11 02:22:03;;;;;;;6.60;3.13;;;;;;;8.27;100.00;96010.63;5084192;28;20044;-74
2023/05/11 02:24:30;;;;;;;4.85;2.80;;;;;;;8.31;100.00;96022.47;5090355;27;20398;-74
2023/05/11 02:26:57;;;;;;;3.72;2.65;;;;;;;8.30;100.00;96016.25;5092458;28;20044;-73
2023/05/11 02:29:24;;;;;;;4.00;2.40;;;;;;;8.31;100.00;96011.59;5092111;28;20044;-74
2023/05/11 02:31:57;;;;;;;4.97;2.85;;;;;;;8.33;100.00;96009.38;5091502;28;20048;-73
2023/05/11 02:34:26;;;;;;;5.85;2.75;;;;;;;8.39;100.00;96007.34;5090066;28;20040;-74
2023/05/11 02:36:57;;;;;;;3.33;2.22;;;;;;;8.31;100.00;96001.56;5091080;28;20051;-75
2023/05/11 02:39:32;;;;;;;2.97;2.00;;;;;;;8.33;100.00;96006.66;5091584;28;20066;-74
2023/05/11 02:42:14;;;;;;;6.70;2.70;;;;;;;8.22;100.00;96003.41;5091579;28;20131;-74
2023/05/11 02:44:45;;;;;;;4.28;2.60;;;;;;;8.14;100.00;96000.66;5091428;28;20044;-73
2023/05/11 02:47:14;;;;;;;4.88;2.47;;;;;;;8.04;100.00;96007.16;5091494;28;20483;-74
2023/05/11 02:49:44;;;;;;;4.75;2.92;;;;;;;7.99;100.00;96001.88;5092117;28;20040;-74
2023/05/11 02:52:13;;;;;;;7.35;3.10;;;;;;;8.06;100.00;96003.00;5089614;27;20042;-75
2023/05/11 02:54:42;;;;;;;5.05;2.80;;;;;;;8.14;100.00;95997.94;5091675;28;20051;-74
2023/05/11 02:57:08;;;;;;;6.10;2.80;;;;;;;8.13;100.00;96001.75;5091581;28;20048;-73
2023/05/11 02:59:35;;;;;;;8.30;2.60;;;;;;;8.08;100.00;96000.78;5091998;28;20047;-76
2023/05/11 03:02:02;;;;;;;4.55;2.85;;;;;;;8.21;100.00;96001.03;5090971;28;20036;-74
2023/05/11 03:04:29;;;;;;;4.55;2.90;;;;;;;8.28;100.00;95998.66;5091626;28;20044;-73
2023/05/11 03:06:55;;;;;;;3.33;2.33;;;;;;;8.25;100.00;95993.88;5091387;28;20044;-73
2023/05/11 03:09:22;;;;;;;8.27;3.17;;;;;;;8.22;100.00;95994.47;5090222;28;20048;-73
2023/05/11 03:11:50;;;;;;;8.20;4.47;;;;;;;8.23;100.00;95996.06;5090049;28;20076;-73
2023/05/11 03:14:17;;;;;;;6.60;3.30;;;;;;;8.15;100.00;95996.84;5090820;27;20043;-73
2023/05/11 03:16:45;;;;;;;7.72;3.25;;;;;;;8.25;100.00;95993.88;5090684;28;20051;-75
2023/05/11 03:19:12;;;;;;;5.40;3.00;;;;;;;8.30;100.00;96001.84;5091021;28;20048;-73
2023/05/11 03:21:39;;;;;;;5.53;3.08;;;;;;;8.38;100.00;95998.41;5091444;28;20044;-73
2023/05/11 03:24:08;;;;;;;5.40;2.78;;;;;;;8.30;100.00;95996.41;5089941;27;20059;-73
2023/05/11 03:26:36;;;;;;;6.78;3.38;;;;;;;8.34;100.00;95994.69;5091448;28;20449;-75
2023/05/11 03:29:04;;;;;;;3.97;2.40;;;;;;;8.42;100.00;95993.97;5090952;28;20040;-75
2023/05/11 03:31:30;;;;;;;6.38;3.80;;;;;;;8.28;100.00;95998.66;5087864;28;20101;-76
2023/05/11 03:33:57;;;;;;;6.20;3.55;;;;;;;8.30;100.00;95994.53;5089850;28;20078;-75
2023/05/11 03:36:25;;;;;;;5.15;3.15;;;;;;;8.34;100.00;95989.25;5090188;28;20055;-75
2023/05/11 03:38:55;;;;;;;3.67;2.60;;;;;;;8.29;100.00;95984.78;5091023;28;20050;-75
2023/05/11 03:41:22;;;;;;;5.72;3.13;;;;;;;8.13;100.00;95990.91;5089927;28;20056;-75
2023/05/11 03:43:52;;;;;;;5.40;3.03;;;;;;;8.21;100.00;95993.69;5090475;28;20040;-76
2023/05/11 03:46:21;;;;;;;4.28;2.97;;;;;;;8.31;100.00;95988.00;5090812;28;20052;-75
2023/05/11 03:48:48;;;;;;;5.80;3.25;;;;;;;8.18;100.00;95980.72;5091127;28;20050;-75
2023/05/11 03:51:15;;;;;;;5.55;2.88;;;;;;;8.24;100.00;95989.53;5089936;28;20040;-75
2023/05/11 03:53:42;;;;;;;4.22;2.92;;;;;;;8.29;100.00;95983.97;5085006;28;20047;-75
2023/05/11 03:56:11;;;;;;;3.83;2.53;;;;;;;8.45;100.00;95985.19;5090827;28;20119;-75
2023/05/11 03:58:39;;;;;;;3.45;2.45;;;;;;;8.55;100.00;95982.19;5091627;28;20048;-75
2023/05/11 04:01:07;;;;;;;4.30;2.40;;;;;;;8.63;100.00;95986.06;5082758;28;20453;-76
2023/05/11 04:03:35;;;;;;;3.22;2.33;;;;;;;8.70;100.00;95982.91;5090653;28;20048;-74
2023/05/11 04:06:01;;;;;;;2.67;1.90;;;;;;;8.62;100.00;95990.72;5090519;28;20502;-75
2023/05/11 04:08:28;;;;;;;4.78;2.20;;;;;;;8.50;100.00;95982.34;5099254;28;20057;-74
2023/05/11 04:10:54;;;;;;;5.57;2.95;;;;;;;8.55;100.00;95976.78;5099104;28;20081;-74
2023/05/11 04:13:21;;;;;;;4.72;2.58;;;;;;;8.45;100.00;95973.53;5095181;28;20487;-73
2023/05/11 04:15:47;;;;;;;4.28;2.42;;;;;;;8.55;100.00;95984.91;5097025;28;20055;-74
2023/05/11 04:18:14;;;;;;;5.55;2.58;;;;;;;8.37;100.00;95975.13;5098545;28;20851;-74
2023/05/11 04:20:42;;;;;;;3.70;2.20;;;;;;;8.18;100.00;95977.22;5098411;28;20044;-74
2023/05/11 04:23:08;;;;;;;4.35;2.35;;;;;;;8.18;100.00;95978.03;5091425;28;20510;-74
2023/05/11 04:25:35;;;;;;;3.28;2.15;;;;;;;8.15;100.00;95978.66;5096066;28;20380;-75
2023/05/11 04:28:01;;;;;;;3.55;2.20;;;;;;;7.93;100.00;95979.47;5091173;28;20059;-73
2023/05/11 04:30:28;;;;;;;4.47;2.30;;;;;;;7.89;100.00;95986.66;5090234;28;20036;-75
2023/05/11 04:32:54;;;;;;;4.63;2.55;;;;;;;7.85;100.00;95986.47;5088591;28;20148;-75
2023/05/11 04:35:22;;;;;;;3.75;2.13;;;;;;;7.83;100.00;95985.19;5089555;28;20454;-74
2023/05/11 04:37:50;;;;;;;4.18;2.00;;;;;;;7.84;100.00;95994.91;5090197;28;20097;-73
2023/05/11 04:40:17;;;;;;;3.30;1.88;;;;;;;7.90;100.00;95988.25;5089611;28;20365;-73
2023/05/11 04:42:43;;;;;;;6.78;3.95;;;;;;;7.88;100.00;95993.16;5088237;27;20419;-73
2023/05/11 04:45:11;;;;;;;4.30;2.10;;;;;;;8.00;100.00;95982.56;5089083;27;20513;-73
2023/05/11 04:47:37;;;;;;;5.20;2.80;;;;;;;7.91;100.00;95983.63;5090338;28;20415;-73
2023/05/11 04:50:04;;;;;;;4.20;2.20;;;;;;;7.89;100.00;95986.66;5089781;28;20070;-74
2023/05/11 04:52:31;;;;;;;4.32;1.92;;;;;;;7.88;100.00;95990.44;5089609;28;20495;-73
2023/05/11 04:54:59;;;;;;;4.40;2.80;;;;;;;8.03;100.00;95986.56;5088792;28;20500;-74
2023/05/11 04:57:25;;;;;;;6.30;2.70;;;;;;;8.02;100.00;95985.75;5090595;28;20044;-74
2023/05/11 04:59:52;;;;;;;5.88;3.33;;;;;;;8.03;100.00;95992.78;5090698;28;20043;-73
2023/05/11 05:02:18;;;;;;;4.82;2.53;;;;;;;8.16;100.00;95987.59;5088622;28;20040;-74
2023/05/11 05:04:45;;;;;;;7.60;2.95;;;;;;;8.03;100.00;95997.41;5089380;28;20055;-74
2023/05/11 05:07:11;;;;;;;3.78;2.35;;;;;;;7.91;100.00;95997.97;5089561;28;20044;-73
2023/05/11 05:09:38;;;;;;;5.68;3.05;;;;;;;8.05;100.00;95990.56;5089914;28;20419;-74
2023/05/11 05:12:06;;;;;;;7.18;3.67;;;;;;;8.04;100.00;95991.69;5088245;28;20052;-73
2023/05/11 05:14:33;;;;;;;4.40;2.53;;;;;;;8.13;100.00;95990.91;5088165;28;20051;-74
2023/05/11 05:17:00;;;;;;;4.70;2.70;;;;;;;8.13;100.00;95990.91;5083625;28;20044;-74
2023/05/11 05:19:26;;;;;;;8.45;2.85;;;;;;;8.08;100.00;95989.94;5089321;28;20411;-74
2023/05/11 05:21:53;;;;;;;4.82;2.80;;;;;;;7.98;100.00;95992.91;5089530;28;20036;-74
2023/05/11 05:24:19;;;;;;;3.53;2.17;;;;;;;7.95;100.00;95993.53;5087307;28;20039;-74
2023/05/11 05:26:46;;;;;;;4.95;2.30;;;;;;;7.87;100.00;95994.28;5093428;28;20044;-74
2023/05/11 05:29:13;;;;;;;2.40;1.90;;;;;;;7.89;100.00;95994.78;5092967;28;20047;-74
2023/05/11 05:31:40;;;;;;;4.10;1.80;;;;;;;7.94;100.00;95994.66;5093414;28;20503;-74
2023/05/11 05:34:06;;;;;;;2.20;1.70;;;;;;;7.96;100.00;96000.56;5091116;28;20138;-74
2023/05/11 05:36:33;;;;;;;3.40;2.10;;;;;;;7.95;100.00;95998.97;5093499;28;20063;-74
2023/05/11 05:38:59;;;;;;;3.30;1.83;;;;;;;7.97;100.00;95999.44;5093292;28;20063;-73
2023/05/11 05:41:26;;;;;;;2.83;2.00;;;;;;;7.96;100.00;96003.28;5092027;28;20040;-74
2023/05/11 05:43:52;;;;;;;3.42;1.70;;;;;;;7.97;100.00;96001.34;5091890;28;20394;-74
2023/05/11 05:46:20;;;;;;;2.20;1.67;;;;;;;8.04;100.00;96009.88;5092853;28;20043;-73
2023/05/11 05:48:47;;;;;;;3.33;2.22;;;;;;;8.03;100.00;95997.41;5093243;28;20041;-75
2023/05/11 05:51:13;;;;;;;3.00;2.00;;;;;;;8.04;100.00;95997.09;5092745;28;20040;-74
2023/05/11 05:53:40;;;;;;;2.47;1.73;;;;;;;8.09;100.00;95996.16;5090959;27;20044;-74
2023/05/11 05:56:06;;;;;;;5.15;1.88;;;;;;;7.98;100.00;96002.94;5092386;28;20090;-73
2023/05/11 05:58:33;;;;;;;3.55;2.08;;;;;;;8.03;100.00;96002.81;5091972;28;20403;-74
2023/05/11 06:01:00;;;;;;;5.80;3.05;;;;;;;8.10;100.00;96006.72;5090593;28;20051;-74
2023/05/11 06:03:28;;;;;;;5.13;2.50;;;;;;;8.04;100.00;96009.88;5091626;28;20040;-73
2023/05/11 06:05:54;;;;;;;3.67;2.17;;;;;;;7.97;100.00;96010.28;5092845;28;20051;-75
2023/05/11 06:08:21;;;;;;;4.15;2.20;;;;;;;8.08;100.00;96008.91;5092456;28;20048;-75
2023/05/11 06:10:47;;;;;;;4.03;2.42;;;;;;;8.13;100.00;96018.03;5091049;28;20036;-73
2023/05/11 06:13:14;;;;;;;5.38;2.40;;;;;;;8.02;100.00;96004.72;5092335;28;20040;-74
2023/05/11 06:15:40;;;;;;;6.53;2.70;;;;;;;8.00;100.00;96015.09;5093023;28;20131;-74
2023/05/11 06:18:07;;;;;;;6.82;3.03;;;;;;;8.06;100.00;96023.91;5091910;28;20051;-74
2023/05/11 06:20:35;;;;;;;5.35;2.67;;;;;;;7.93;100.00;96019.34;5091055;27;20050;-74
2023/05/11 06:23:01;;;;;;;4.90;2.83;;;;;;;7.94;100.00;96012.84;5092000;28;20051;-74
2023/05/11 06:25:28;;;;;;;5.25;2.50;;;;;;;8.08;100.00;96022.47;5092331;28;20040;-73
2023/05/11 06:27:54;;;;;;;4.07;2.50;;;;;;;8.17;100.00;96019.03;5092542;28;20055;-73
2023/05/11 06:30:21;;;;;;;3.50;2.00;;;;;;;8.16;100.00;96022.84;5090377;27;20407;-73
2023/05/11 06:32:47;;;;;;;3.63;2.47;;;;;;;8.16;100.00;96020.13;5092568;28;20052;-73
2023/05/11 06:35:14;;;;;;;4.10;2.22;;;;;;;8.27;100.00;96021.47;5091834;28;20036;-73
2023/05/11 06:37:42;;;;;;;3.60;2.30;;;;;;;8.41;100.00;96024.94;5092468;28;20052;-73
2023/05/11 06:40:09;;;;;;;3.45;2.15;;;;;;;8.49;100.00;96026.88;5089515;28;20048;-74
2023/05/11 06:42:36;;;;;;;3.42;2.50;;;;;;;8.48;100.00;96022.56;5092269;28;20043;-73
2023/05/11 06:45:02;;;;;;;2.50;1.80;;;;;;;8.45;100.00;96028.59;5090709;28;20048;-73
2023/05/11 06:47:29;;;;;;;5.57;2.25;;;;;;;8.57;100.00;96023.41;5086137;28;20450;-73
2023/05/11 06:49:55;;;;;;;5.75;2.97;;;;;;;8.50;100.00;96023.03;5091299;27;20174;-73
2023/05/11 06:52:22;;;;;;;3.78;2.30;;;;;;;8.39;100.00;96027.16;5089479;27;20051;-73
2023/05/11 06:54:50;;;;;;;4.72;2.40;;;;;;;8.39;100.00;96021.72;5092169;28;20044;-73
2023/05/11 06:57:16;;;;;;;3.83;2.55;;;;;;;8.35;100.00;96026.13;5090007;28;20043;-74
2023/05/11 06:59:43;;;;;;;4.65;2.83;;;;;;;8.27;100.00;96018.75;5087747;28;20036;-73
2023/05/11 07:02:10;;;;;;;2.63;1.88;;;;;;;8.18;100.00;96026.03;5086987;28;20048;-73
2023/05/11 07:04:37;;;;;;;4.78;2.85;;;;;;;8.14;100.00;96025.84;5090486;28;20065;-74
2023/05/11 07:07:03;;;;;;;5.13;2.67;;;;;;;8.22;100.00;96021.59;5087430;28;20044;-74
2023/05/11 07:09:30;;;;;;;6.72;2.60;;;;;;;8.32;100.00;96021.34;5093584;28;20046;-74
2023/05/11 07:11:57;;;;;;;5.07;2.97;;;;;;;8.33;100.00;96025.66;5090248;28;20052;-74
2023/05/11 07:14:24;;;;;;;4.50;2.80;;;;;;;8.29;100.00;96022.75;5092797;28;20046;-75
2023/05/11 07:16:51;;;;;;;4.38;2.67;;;;;;;8.32;100.00;96026.78;5093943;28;20119;-74
2023/05/11 07:19:18;;;;;;;6.57;3.10;;;;;;;8.34;100.00;96027.25;5082067;28;20044;-74
2023/05/11 07:21:44;;;;;;;4.85;3.05;;;;;;;8.21;100.00;96025.44;5092474;28;20040;-73
2023/05/11 07:24:11;;;;;;;5.78;3.33;;;;;;;8.29;100.00;96022.75;5093595;28;20051;-74
2023/05/11 07:26:37;;;;;;;5.22;3.38;;;;;;;8.35;100.00;96015.28;5094749;28;20044;-75
2023/05/11 07:29:05;;;;;;;10.57;4.45;;;;;;;8.39;100.00;96024.44;5091917;28;20048;-75
2023/05/11 07:31:32;;;;;;;10.40;4.18;;;;;;;8.44;100.00;96021.59;5089205;28;20149;-76
2023/05/11 07:33:58;;;;;;;5.72;3.35;;;;;;;8.46;100.00;96022.09;5090631;27;20515;-76
2023/05/11 07:36:25;;;;;;;4.30;2.90;;;;;;;8.50;100.00;96016.81;5093800;28;20062;-74
2023/05/11 07:38:51;;;;;;;4.55;3.10;;;;;;;8.42;100.00;96018.41;5094035;28;20047;-74
2023/05/11 07:41:20;;;;;;;5.53;3.05;;;;;;;8.44;100.00;96018.88;5085306;28;20040;-76
2023/05/11 07:43:46;;;;;;;4.53;3.20;;;;;;;8.31;100.00;96014.31;5090673;27;20040;-73
2023/05/11 07:46:14;;;;;;;4.68;2.90;;;;;;;8.31;100.00;96017.84;5094450;28;20067;-73
2023/05/11 07:48:40;;;;;;;5.88;3.47;;;;;;;8.38;100.00;96022.03;5092117;28;20063;-74
2023/05/11 07:51:07;;;;;;;5.50;3.17;;;;;;;8.39;100.00;96020.91;5096609;28;20090;-74
2023/05/11 07:53:34;;;;;;;4.85;3.35;;;;;;;8.45;100.00;96017.75;5092938;28;20040;-75
2023/05/11 07:56:02;;;;;;;5.53;3.28;;;;;;;8.45;100.00;96020.47;5094660;28;20048;-75
2023/05/11 07:58:29;;;;;;;3.50;2.60;;;;;;;8.52;100.00;96018.13;5097173;28;20046;-73
2023/05/11 08:00:56;;;;;;;4.18;2.55;;;;;;;8.27;100.00;96025.00;5093025;28;20044;-74
2023/05/11 08:03:24;;;;;;;3.22;2.40;;;;;;;8.15;100.00;96015.84;5073934;28;20041;-75
2023/05/11 08:05:50;;;;;;;4.60;2.45;;;;;;;8.06;100.00;96027.41;5082911;28;20384;-76
2023/05/11 08:08:17;;;;;;;4.63;2.60;;;;;;;8.12;100.00;96019.94;5087345;28;20039;-76
2023/05/11 08:10:43;;;;;;;3.80;2.38;;;;;;;8.09;100.00;96018.69;5096148;28;20112;-75
2023/05/11 08:13:10;;;;;;;3.67;2.60;;;;;;;8.17;100.00;96019.03;5088917;28;20058;-74
2023/05/11 08:15:36;;;;;;;4.35;2.70;;;;;;;8.31;100.00;96019.75;5095174;28;20051;-73
2023/05/11 08:18:03;;;;;;;4.22;2.75;;;;;;;8.28;100.00;96025.78;5093659;28;20048;-73
2023/05/11 08:20:31;;;;;;;4.03;2.80;;;;;;;8.29;100.00;96027.38;5087957;28;20075;-73
2023/05/11 08:22:57;;;;;;;3.90;2.28;;;;;;;8.16;100.00;96020.13;5089519;28;20403;-75
2023/05/11 08:25:24;;;;;;;4.45;2.58;;;;;;;8.22;100.00;96016.19;5087018;28;20044;-74
2023/05/11 08:27:50;;;;;;;4.50;2.55;;;;;;;8.18;100.00;96017.91;5089373;27;20089;-74
2023/05/11 08:30:17;;;;;;;6.15;3.65;;;;;;;8.33;100.00;96012.88;5088012;28;20067;-73
2023/05/11 08:32:44;;;;;;;7.50;3.22;;;;;;;8.40;100.00;96019.81;5084997;28;20040;-74
2023/05/11 08:35:12;;;;;;;5.30;2.70;;;;;;;8.41;100.00;96019.50;5088863;28;20044;-75
2023/05/11 08:37:40;;;;;;;4.07;2.50;;;;;;;8.46;100.00;96019.38;5090257;28;20043;-74
2023/05/11 08:40:08;;;;;;;4.70;2.53;;;;;;;8.40;100.00;96017.88;5089467;28;20044;-75
2023/05/11 08:42:35;;;;;;;13.68;3.13;;;;;;;8.41;100.00;96014.09;5086885;28;20743;-74
2023/05/11 08:45:03;;;;;;;6.07;2.67;;;;;;;8.52;100.00;96015.41;5086763;28;20048;-75
2023/05/11 08:47:30;;;;;;;9.02;2.80;;;;;;;8.58;100.00;96008.72;5090118;28;20097;-74
2023/05/11 08:49:57;;;;;;;6.10;2.30;;;;;;;8.48;100.00;96009.00;5089594;28;20442;-73
2023/05/11 08:52:25;;;;;;;6.40;2.58;;;;;;;8.33;100.00;96012.09;5087486;28;20051;-74
2023/05/11 08:54:53;;;;;;;11.25;3.15;;;;;;;8.37;100.00;96018.53;5089253;28;20411;-73
2023/05/11 08:57:20;;;;;;;5.30;1.95;;;;;;;8.32;100.00;96016.72;5089225;28;20050;-74
2023/05/11 08:59:48;;;;;;;7.65;2.40;;;;;;;8.33;100.00;96017.50;5089641;28;20051;-74
2023/05/11 09:02:17;;;;;;;7.10;2.75;;;;;;;8.45;100.00;96015.03;5087603;28;20041;-74
2023/05/11 09:04:44;;;;;;;4.85;1.77;;;;;;;8.41;100.00;96019.50;5089357;28;20555;-74
2023/05/11 09:07:11;;;;;;;7.43;2.53;;;;;;;8.37;100.00;96021.25;5087477;28;20484;-74
2023/05/11 09:09:40;;;;;;;5.57;2.25;;;;;;;8.32;100.00;96010.50;5089019;28;20040;-74
2023/05/11 09:12:08;;;;;;;8.32;2.58;;;;;;;8.23;100.00;96028.63;5087821;28;20104;-74
2023/05/11 09:14:34;;;;;;;4.72;2.05;;;;;;;8.19;100.00;96017.59;5089774;28;20044;-73
2023/05/11 09:17:03;;;;;;;7.32;3.05;;;;;;;8.14;100.00;96022.34;5087740;28;20075;-73
2023/05/11 09:19:30;;;;;;;5.50;2.10;;;;;;;8.19;100.00;96022.22;5089397;28;20730;-74
2023/05/11 09:21:56;;;;;;;6.18;2.55;;;;;;;8.27;100.00;96026.91;5089067;28;20052;-74
2023/05/11 09:24:23;;;;;;;8.70;2.60;;;;;;;8.25;100.00;96021.00;5080390;28;20392;-74
2023/05/11 09:26:49;;;;;;;5.57;2.45;;;;;;;8.36;100.00;96022.38;5084480;27;20048;-73
2023/05/11 09:29:19;;;;;;;6.78;2.55;;;;;;;8.44;100.00;96018.88;5089140;28;20048;-73
2023/05/11 09:31:47;;;;;;;5.90;2.92;;;;;;;8.45;100.00;96020.47;5086981;28;20036;-73
2023/05/11 09:34:15;;;;;;;5.05;2.53;;;;;;;8.40;100.00;96023.31;5086410;28;20036;-73
2023/05/11 09:36:41;;;;;;;3.17;1.80;;;;;;;8.37;100.00;96023.94;5089574;28;20394;-73
2023/05/11 09:39:08;;;;;;;6.85;2.70;;;;;;;8.42;100.00;96014.88;5085971;28;20044;-73
2023/05/11 09:41:35;;;;;;;9.48;2.58;;;;;;;8.50;100.00;96022.25;5087619;28;20101;-73
2023/05/11 09:44:07;;;;;;;3.70;1.98;;;;;;;8.58;100.00;96016.88;5088921;28;20044;-74
2023/05/11 09:46:35;;;;;;;5.22;2.65;;;;;;;8.49;100.00;96013.31;5085875;28;20044;-74
2023/05/11 09:49:03;;;;;;;4.78;1.98;;;;;;;8.66;100.00;96019.91;5086576;28;20045;-75
2023/05/11 09:51:31;;;;;;;2.95;1.45;;;;;;;8.74;100.00;96021.88;5088981;28;20044;-73
2023/05/11 09:53:58;;;;;;;5.03;1.77;;;;;;;8.61;100.00;96016.25;5089425;28;20051;-75
2023/05/11 09:56:43;;;;;;;4.13;1.80;;;;;;;8.51;100.00;96013.00;5089030;28;20044;-73
2023/05/11 09:59:11;;;;;;;4.55;2.17;;;;;;;8.67;100.00;96016.13;5084452;28;20151;-73
2023/05/11 10:01:40;;;;;;;4.70;2.00;;;;;;;8.54;100.00;96013.19;5085917;28;20127;-73
2023/05/11 10:04:08;;;;;;;5.03;2.00;;;;;;;8.63;100.00;96019.44;5087735;28;20040;-73
2023/05/11 10:06:45;;;;;;;3.67;2.20;;;;;;;8.54;100.00;96018.59;5088465;28;20044;-73
2023/05/11 10:09:13;;;;;;;3.88;2.20;;;;;;;8.52;100.00;96023.56;5089051;28;20047;-72
2023/05/11 10:11:44;;;;;;;3.22;2.10;;;;;;;8.52;100.00;96017.31;5091716;28;20450;-74
2023/05/11 10:14:12;;;;;;;3.30;2.40;;;;;;;8.61;100.00;96020.84;5090593;28;20052;-74
2023/05/11 10:16:41;;;;;;;4.65;2.45;;;;;;;8.66;100.00;96018.00;5092106;28;20047;-73
2023/05/11 10:19:08;;;;;;;4.25;2.72;;;;;;;8.61;100.00;96021.69;5092278;28;20085;-73
2023/05/11 10:21:35;;;;;;;4.63;2.78;;;;;;;8.74;100.00;96022.69;5092599;28;20043;-73
2023/05/11 10:24:03;;;;;;;3.53;1.80;;;;;;;8.68;100.00;96020.41;5089675;28;20070;-73
2023/05/11 10:26:30;;;;;;;2.53;1.40;;;;;;;8.65;100.00;96015.59;5085079;28;20507;-73
2023/05/11 10:28:58;;;;;;;2.58;1.50;;;;;;;8.56;100.00;96021.81;5092559;28;20044;-73
2023/05/11 10:31:25;;;;;;;2.70;1.63;;;;;;;8.58;100.00;96013.34;5091664;28;20036;-73
2023/05/11 10:33:53;;;;;;;1.88;1.48;;;;;;;8.65;100.00;96015.59;5089523;28;20048;-74
2023/05/11 10:36:23;;;;;;;5.18;2.15;;;;;;;8.45;100.00;96015.03;5091469;28;20422;-73
2023/05/11 10:38:50;;;;;;;4.18;2.08;;;;;;;8.51;100.00;96013.81;5088037;28;20040;-73
2023/05/11 10:41:29;;;;;;;2.63;1.90;;;;;;;8.59;100.00;96015.75;5090784;27;20484;-73
2023/05/11 10:44:18;;;;;;;5.75;2.80;;;;;;;8.51;100.00;96008.38;5092149;28;20048;-73
2023/05/11 10:47:03;;;;;;;4.80;2.40;;;;;;;8.46;100.00;96007.72;5092155;28;20044;-73
2023/05/11 10:49:48;;;;;;;7.10;3.70;;;;;;;8.54;100.00;96010.47;5086047;28;20055;-73
2023/05/11 10:52:43;;;;;;;4.68;2.30;;;;;;;8.57;100.00;96007.13;5091434;27;20529;-73
2023/05/11 10:55:17;;;;;;;6.63;2.88;;;;;;;8.78;100.00;96001.13;5091456;28;20484;-74
2023/05/11 10:58:03;;;;;;;6.13;2.80;;;;;;;8.88;100.00;96003.56;5091916;28;20040;-73
2023/05/11 11:01:07;;;;;;;4.20;2.38;;;;;;;8.89;100.00;96002.44;5083702;28;20040;-73
2023/05/11 11:03:33;;;;;;;3.78;2.08;;;;;;;8.60;100.00;95994.84;5082880;28;20046;-74
2023/05/11 11:06:02;;;;;;;4.70;2.20;;;;;;;8.59;100.00;95994.03;5090297;28;20044;-73
2023/05/11 11:08:29;;;;;;;3.70;2.35;;;;;;;8.62;100.00;95998.84;5090403;28;20624;-73
2023/05/11 11:10:55;;;;;;;2.63;1.98;;;;;;;8.79;100.00;96002.72;5091556;28;20047;-73
2023/05/11 11:13:23;;;;;;;3.95;2.15;;;;;;;8.81;100.00;95995.06;5090148;27;20055;-73
2023/05/11 11:16:09;;;;;;;4.07;2.38;;;;;;;8.79;100.00;95997.31;5091452;28;20048;-73
2023/05/11 11:18:35;;;;;;;3.35;1.73;;;;;;;8.88;100.00;95996.22;5089302;28;20105;-73
2023/05/11 11:21:04;;;;;;;5.15;2.70;;;;;;;8.85;100.00;95996.84;5089024;28;20048;-74
2023/05/11 11:23:45;;;;;;;8.15;2.33;;;;;;;8.72;100.00;95996.94;5089123;28;20051;-73
2023/05/11 11:26:14;;;;;;;8.85;3.00;;;;;;;8.73;100.00;96001.28;5090912;28;20465;-73
2023/05/11 11:29:09;;;;;;;10.32;2.65;;;;;;;8.82;100.00;95993.94;5091573;28;20453;-73
2023/05/11 11:31:38;;;;;;;10.05;2.45;;;;;;;8.67;100.00;95988.97;5089143;28;20036;-73
2023/05/11 11:34:41;;;;;;;7.75;2.53;;;;;;;8.75;100.00;95991.69;5090482;28;20074;-74
2023/05/11 11:37:09;;;;;;;8.40;2.60;;;;;;;8.93;100.00;95998.00;5080204;28;20487;-73
2023/05/11 11:39:48;;;;;;;8.88;2.60;;;;;;;8.86;100.00;95989.50;5091321;28;20495;-72
2023/05/11 11:42:16;;;;;;;15.60;3.72;;;;;;;8.81;100.00;95984.19;5088264;27;20407;-73